Brora, United Kingdom
Current Conditions -  °F | °C
As of 8:50 AM on Sunday 21 Dec 2014 (Local Time) from EGQK Reporting Station
Light Rain Light Rain  
Wind Chill: 50°   Ceiling: 6000
Heat Index: 50°   Visibility: 6mi
Dew Point: 43°   Wind: 18mph
Humidity: 76%   Direction: 220°SW
Pressure: 29.68"   Gusts: NA
Location:  58.01°N, 3.85°W
Report Text: EGQK 210850Z AUTO 22016KT 9999 -RA OVC060/// 10/06 Q1005
Loading
Personal Weather Stations






























Interactive Weather Map New forecast layout! Learn more

10-Day Weather Forecast

Advertisements
Track Severe Weather on mobile